Time;durP1;ratioP1;P1;durP2;ratioP2;P2;SDS_P1;SDS_P2;PMS_P1;PMS_P2;Temp;Humidity;BMP_temperature;BMP_pressure;BME280_temperature;BME280_humidity;BME280_pressure;Samples;Min_cycle;Max_cycle;Signal;HPM_P1;HPM_P2
2022/04/17 00:01:43;;;;;;;13.38;9.13;;;6.00;99.90;;;;;;4737801;28;9999845;-68
2022/04/17 00:04:10;;;;;;;15.02;9.40;;;6.10;99.90;;;;;;5085517;28;20442;-68
2022/04/17 00:06:37;;;;;;;13.48;9.38;;;6.20;99.90;;;;;;5102453;28;20032;-68
2022/04/17 00:09:03;;;;;;;15.75;8.88;;;6.30;99.90;;;;;;5099027;28;20100;-68
2022/04/17 00:11:28;;;;;;;12.98;8.75;;;6.40;99.90;;;;;;5087299;28;20024;-68
2022/04/17 00:13:55;;;;;;;13.02;9.80;;;6.40;99.40;;;;;;5103673;28;20016;-68
2022/04/17 00:16:21;;;;;;;13.10;9.40;;;6.40;99.20;;;;;;5092928;28;20289;-67
2022/04/17 00:18:46;;;;;;;13.45;9.07;;;6.30;99.40;;;;;;5099511;28;20467;-68
2022/04/17 00:21:12;;;;;;;13.98;9.90;;;6.40;99.90;;;;;;5094700;28;20066;-68
2022/04/17 00:23:38;;;;;;;15.77;10.20;;;6.20;99.70;;;;;;5093253;28;20441;-68
2022/04/17 00:26:04;;;;;;;14.68;10.70;;;6.20;99.90;;;;;;5094916;28;20027;-68
2022/04/17 00:28:30;;;;;;;14.60;10.73;;;6.20;99.90;;;;;;5091584;28;20020;-68
2022/04/17 00:30:55;;;;;;;15.43;10.35;;;6.20;99.90;;;;;;5094391;28;20122;-68
2022/04/17 00:33:21;;;;;;;14.48;9.52;;;6.20;99.90;;;;;;5096385;28;20020;-68
2022/04/17 00:35:47;;;;;;;16.67;10.75;;;6.20;99.90;;;;;;5083072;28;20023;-68
2022/04/17 00:38:12;;;;;;;17.50;10.98;;;6.20;99.90;;;;;;5093778;28;20506;-68
2022/04/17 00:40:38;;;;;;;16.25;11.13;;;6.20;99.90;;;;;;5092589;28;20330;-68
2022/04/17 00:43:26;;;;;;;19.10;11.65;;;6.10;99.90;;;;;;5090091;28;20077;-68
2022/04/17 00:45:53;;;;;;;14.63;10.82;;;6.10;99.90;;;;;;5082667;28;20023;-68
2022/04/17 00:48:19;;;;;;;16.52;11.70;;;6.10;99.90;;;;;;5093436;28;20357;-68
2022/04/17 00:50:46;;;;;;;16.35;12.52;;;6.10;99.90;;;;;;5090138;28;20112;-68
2022/04/17 00:53:13;;;;;;;17.98;11.55;;;6.20;99.90;;;;;;5091319;28;20028;-68
2022/04/17 00:55:40;;;;;;;18.17;12.30;;;6.10;99.90;;;;;;5079204;28;20032;-68
2022/04/17 00:58:06;;;;;;;19.75;12.20;;;6.10;99.90;;;;;;5083442;28;20032;-68
2022/04/17 01:00:33;;;;;;;18.83;11.95;;;6.10;99.90;;;;;;5091402;28;20024;-68
2022/04/17 01:02:59;;;;;;;17.13;11.63;;;6.00;99.90;;;;;;5086999;28;20370;-68
2022/04/17 01:05:24;;;;;;;18.85;11.40;;;5.90;99.90;;;;;;5084797;28;20008;-68
2022/04/17 01:07:51;;;;;;;16.52;12.07;;;5.70;99.90;;;;;;5100750;28;20390;-68
2022/04/17 01:10:18;;;;;;;17.90;11.55;;;5.50;99.90;;;;;;5084446;28;20091;-68
2022/04/17 01:12:44;;;;;;;15.18;11.15;;;5.30;99.90;;;;;;5094588;28;20383;-68
2022/04/17 01:15:11;;;;;;;17.55;12.55;;;5.20;99.90;;;;;;5083513;28;20236;-68
2022/04/17 01:17:37;;;;;;;18.52;13.68;;;5.20;99.90;;;;;;5081560;28;20012;-68
2022/04/17 01:20:04;;;;;;;19.50;13.70;;;5.20;99.90;;;;;;5088428;28;20024;-67
2022/04/17 01:22:29;;;;;;;21.77;14.25;;;5.30;99.90;;;;;;5089362;28;20039;-68
2022/04/17 01:27:39;;;;;;;18.63;12.93;;;5.40;99.90;;;;;;5090659;28;20031;-68
2022/04/17 01:30:05;;;;;;;19.10;13.10;;;5.50;99.90;;;;;;5087128;28;20040;-68
2022/04/17 01:32:31;;;;;;;19.88;13.35;;;5.50;99.90;;;;;;5091524;28;20027;-68
2022/04/17 01:34:56;;;;;;;20.55;12.85;;;5.50;99.90;;;;;;5081663;28;20028;-67
2022/04/17 01:37:22;;;;;;;19.13;12.60;;;5.60;99.90;;;;;;5081937;28;20441;-68
2022/04/17 01:39:48;;;;;;;20.58;13.07;;;5.60;99.90;;;;;;5082142;28;20467;-68
2022/04/17 01:42:16;;;;;;;22.38;11.98;;;5.60;99.90;;;;;;5089594;28;20396;-67
2022/04/17 01:44:41;;;;;;;17.02;11.02;;;5.50;99.90;;;;;;5080758;28;20031;-67
2022/04/17 01:47:07;;;;;;;17.38;11.55;;;5.50;99.90;;;;;;5087083;28;20028;-68
2022/04/17 01:49:33;;;;;;;16.67;11.35;;;5.50;99.90;;;;;;5086886;28;20062;-68
2022/04/17 01:52:00;;;;;;;13.95;10.38;;;5.40;99.90;;;;;;5092991;28;20034;-67
2022/04/17 01:54:27;;;;;;;16.00;11.60;;;5.40;99.90;;;;;;5081776;28;20036;-67
2022/04/17 01:56:54;;;;;;;16.25;10.98;;;5.40;99.90;;;;;;5084056;28;20031;-67
2022/04/17 01:59:22;;;;;;;15.68;10.40;;;5.40;99.90;;;;;;5086205;28;20403;-67
2022/04/17 02:01:48;;;;;;;17.00;10.88;;;5.30;99.90;;;;;;5089458;28;20036;-67
2022/04/17 02:04:14;;;;;;;18.33;11.00;;;5.30;99.90;;;;;;5088162;28;20035;-67
2022/04/17 02:06:41;;;;;;;16.25;10.20;;;5.30;99.90;;;;;;5082229;28;20020;-67
2022/04/17 02:09:11;;;;;;;15.57;11.45;;;5.20;99.90;;;;;;5106589;28;20051;-67
2022/04/17 02:11:38;;;;;;;15.88;10.85;;;5.00;99.90;;;;;;5098471;28;20101;-67
2022/04/17 02:14:05;;;;;;;18.90;12.45;;;4.70;99.90;;;;;;5096706;28;20681;-67
2022/04/17 02:16:30;;;;;;;15.93;11.75;;;4.40;99.90;;;;;;5088614;28;20404;-67
2022/04/17 02:18:57;;;;;;;16.38;11.38;;;4.00;99.90;;;;;;5098846;28;20023;-68
2022/04/17 02:21:22;;;;;;;15.73;11.75;;;4.00;99.90;;;;;;5096452;28;20181;-67
2022/04/17 02:23:49;;;;;;;16.20;11.98;;;3.90;99.90;;;;;;5090662;28;20060;-68
2022/04/17 02:26:18;;;;;;;19.52;12.00;;;4.00;99.90;;;;;;5104521;28;20008;-68
2022/04/17 02:28:46;;;;;;;16.90;11.80;;;4.10;99.90;;;;;;5091464;28;20039;-68
2022/04/17 02:31:12;;;;;;;21.92;13.00;;;4.30;99.90;;;;;;5100673;28;20023;-68
2022/04/17 02:33:38;;;;;;;18.35;12.45;;;4.40;99.90;;;;;;5098878;28;20040;-68
2022/04/17 02:36:07;;;;;;;15.43;11.65;;;4.50;99.90;;;;;;5099408;28;20031;-68
2022/04/17 02:38:33;;;;;;;20.48;12.10;;;4.60;99.90;;;;;;5096247;28;20028;-68
2022/04/17 02:40:59;;;;;;;18.80;12.60;;;4.60;99.90;;;;;;5093246;28;20096;-68
2022/04/17 02:43:24;;;;;;;21.40;12.95;;;4.60;99.90;;;;;;5094377;28;20024;-68
2022/04/17 02:45:51;;;;;;;17.92;12.82;;;4.60;99.90;;;;;;5096065;28;20024;-68
2022/04/17 02:48:17;;;;;;;18.27;12.80;;;4.60;99.90;;;;;;5095952;28;20048;-67
2022/04/17 02:50:42;;;;;;;17.35;11.68;;;4.60;99.90;;;;;;5098861;28;20062;-68
2022/04/17 02:53:09;;;;;;;18.25;12.50;;;4.50;99.90;;;;;;5089218;28;20028;-68
2022/04/17 02:55:35;;;;;;;17.58;11.82;;;4.50;99.90;;;;;;5085205;28;20248;-68
2022/04/17 02:58:00;;;;;;;18.15;11.70;;;4.50;99.90;;;;;;5089932;28;20123;-67
2022/04/17 03:00:30;;;;;;;18.48;11.63;;;4.40;99.90;;;;;;5092096;28;20066;-68
2022/04/17 03:05:41;;;;;;;20.30;12.25;;;4.30;99.90;;;;;;5092287;28;20093;-67
2022/04/17 03:08:13;;;;;;;18.70;11.60;;;4.30;99.90;;;;;;5091294;28;20555;-67
2022/04/17 03:10:48;;;;;;;17.20;11.45;;;4.20;99.90;;;;;;5101807;28;20157;-67
2022/04/17 03:13:15;;;;;;;19.05;12.43;;;4.10;99.90;;;;;;5097188;28;20434;-67
2022/04/17 03:15:41;;;;;;;18.95;12.32;;;4.10;99.90;;;;;;5092803;28;20168;-67
2022/04/17 03:18:08;;;;;;;24.80;13.65;;;4.10;99.90;;;;;;5092040;28;20060;-67
2022/04/17 03:20:34;;;;;;;19.48;13.27;;;4.10;99.90;;;;;;5090555;28;20032;-67
2022/04/17 03:23:00;;;;;;;21.17;13.75;;;4.10;99.90;;;;;;5092837;28;20043;-67
2022/04/17 03:25:25;;;;;;;19.20;13.07;;;4.10;99.90;;;;;;5095866;28;20028;-67
2022/04/17 03:27:51;;;;;;;20.42;13.70;;;4.20;99.90;;;;;;5101341;28;20518;-67
2022/04/17 03:30:18;;;;;;;20.60;13.38;;;4.20;99.90;;;;;;5087624;28;20041;-67
2022/04/17 03:32:45;;;;;;;20.65;13.52;;;4.20;99.90;;;;;;5102234;28;20051;-67
2022/04/17 03:35:11;;;;;;;19.58;12.98;;;4.20;99.90;;;;;;5089429;28;20358;-67
2022/04/17 03:37:37;;;;;;;21.38;13.15;;;4.10;99.90;;;;;;5099406;28;20032;-67
2022/04/17 03:40:04;;;;;;;25.50;13.43;;;4.10;99.90;;;;;;5090918;28;20035;-67
2022/04/17 03:42:29;;;;;;;19.30;14.18;;;4.10;99.90;;;;;;5090535;28;20030;-67
2022/04/17 03:44:55;;;;;;;21.33;13.77;;;4.00;99.90;;;;;;5090921;28;20024;-67
2022/04/17 03:47:22;;;;;;;23.70;13.68;;;4.00;99.90;;;;;;5092448;28;20020;-66
2022/04/17 03:49:47;;;;;;;18.60;13.55;;;4.00;99.90;;;;;;5092088;28;20031;-67
2022/04/17 03:52:13;;;;;;;23.02;13.63;;;4.00;99.90;;;;;;5091422;28;20024;-67
2022/04/17 03:54:39;;;;;;;22.88;14.27;;;3.90;99.90;;;;;;5093966;28;20188;-67
2022/04/17 03:57:04;;;;;;;21.55;13.52;;;3.90;99.90;;;;;;5090851;28;20031;-67
2022/04/17 03:59:31;;;;;;;19.73;14.52;;;3.90;99.90;;;;;;5093577;28;20027;-67
2022/04/17 04:01:58;;;;;;;20.30;14.38;;;3.80;99.90;;;;;;5093578;28;20162;-68
2022/04/17 04:04:23;;;;;;;20.63;13.65;;;3.80;99.90;;;;;;5087239;28;20388;-67
2022/04/17 04:06:50;;;;;;;20.17;13.27;;;3.80;99.90;;;;;;5097765;28;20184;-68
2022/04/17 04:09:16;;;;;;;20.40;13.23;;;3.80;99.90;;;;;;5093264;28;20069;-67
2022/04/17 04:11:43;;;;;;;23.02;13.98;;;3.80;99.90;;;;;;5086266;28;20032;-67
2022/04/17 04:14:10;;;;;;;22.15;15.23;;;3.80;99.90;;;;;;5089043;28;20090;-68
2022/04/17 04:16:35;;;;;;;21.85;14.40;;;3.80;99.90;;;;;;5091536;28;20080;-67
2022/04/17 04:19:02;;;;;;;23.60;14.43;;;3.90;99.90;;;;;;5090800;28;20040;-67
2022/04/17 04:21:28;;;;;;;22.58;14.82;;;3.90;99.90;;;;;;5096996;28;20028;-67
2022/04/17 04:23:54;;;;;;;21.33;15.63;;;3.90;99.90;;;;;;5094396;28;20490;-67
2022/04/17 04:26:20;;;;;;;19.83;13.80;;;4.00;99.90;;;;;;5090565;28;20423;-67
2022/04/17 04:28:45;;;;;;;20.15;13.70;;;4.00;99.90;;;;;;5090283;28;20028;-67
2022/04/17 04:31:12;;;;;;;20.25;13.73;;;;;;;;;;5098889;28;20558;-67
2022/04/17 04:33:40;;;;;;;18.63;12.95;;;3.90;99.90;;;;;;5091425;28;20040;-67
2022/04/17 04:36:10;;;;;;;19.33;13.43;;;3.60;99.90;;;;;;5098209;28;20035;-67
2022/04/17 04:38:36;;;;;;;18.60;12.93;;;3.40;99.90;;;;;;5092578;28;20571;-67
2022/04/17 04:41:03;;;;;;;19.38;13.23;;;3.20;99.90;;;;;;5091807;28;20548;-67
2022/04/17 04:43:29;;;;;;;19.88;13.13;;;;;;;;;;5086987;28;20036;-67
2022/04/17 04:46:07;;;;;;;20.58;14.20;;;3.10;99.90;;;;;;5086072;28;20043;-67
2022/04/17 04:51:22;;;;;;;20.60;13.25;;;2.90;99.90;;;;;;5094333;28;20038;-67
2022/04/17 04:53:49;;;;;;;21.85;13.07;;;2.90;99.90;;;;;;5093490;28;20407;-67
2022/04/17 04:56:16;;;;;;;19.38;13.30;;;2.90;99.90;;;;;;5100993;28;20039;-67
2022/04/17 04:58:42;;;;;;;22.02;13.15;;;2.90;99.90;;;;;;5097499;28;20483;-67
2022/04/17 05:01:08;;;;;;;23.38;14.20;;;2.70;99.90;;;;;;5092329;28;20039;-67
2022/04/17 05:03:34;;;;;;;20.35;13.77;;;2.70;99.90;;;;;;5101402;28;20072;-67
2022/04/17 05:06:00;;;;;;;21.42;14.48;;;2.80;99.90;;;;;;5099657;28;20059;-67
2022/04/17 05:08:25;;;;;;;22.17;15.30;;;3.00;99.90;;;;;;5103780;28;20474;-67
2022/04/17 05:10:51;;;;;;;21.33;14.57;;;3.20;99.90;;;;;;5093531;28;20122;-67
2022/04/17 05:13:17;;;;;;;22.55;15.23;;;3.30;99.90;;;;;;5087668;28;20381;-67
2022/04/17 05:15:42;;;;;;;21.83;14.23;;;3.40;99.90;;;;;;5082329;28;20520;-67
2022/04/17 05:18:08;;;;;;;23.58;15.23;;;3.40;99.90;;;;;;5085833;28;20036;-67
2022/04/17 05:20:34;;;;;;;27.77;16.42;;;3.20;99.90;;;;;;5091570;28;20224;-67
2022/04/17 05:23:19;;;;;;;25.88;15.07;;;3.10;99.90;;;;;;5099706;28;20050;-67
2022/04/17 05:25:47;;;;;;;22.80;15.30;;;3.00;99.90;;;;;;5097539;28;20118;-67
2022/04/17 05:28:13;;;;;;;22.25;14.43;;;2.90;99.90;;;;;;5086621;28;20208;-67
2022/04/17 05:30:39;;;;;;;21.92;14.18;;;2.80;99.90;;;;;;5091351;28;20293;-67
2022/04/17 05:33:05;;;;;;;20.85;14.18;;;2.80;99.90;;;;;;5093261;28;20032;-67
2022/04/17 05:35:31;;;;;;;19.27;13.23;;;2.80;99.90;;;;;;5097980;28;20031;-67
2022/04/17 05:37:56;;;;;;;18.85;13.45;;;2.90;99.90;;;;;;5096883;28;20241;-67
2022/04/17 05:40:22;;;;;;;20.48;13.38;;;2.80;99.90;;;;;;5090911;28;20028;-67
2022/04/17 05:42:47;;;;;;;20.40;13.18;;;2.80;99.90;;;;;;5093149;28;20042;-67
2022/04/17 05:45:13;;;;;;;21.70;13.65;;;2.80;99.90;;;;;;5090610;28;20028;-67
2022/04/17 05:47:39;;;;;;;20.95;13.57;;;2.80;99.90;;;;;;5096132;28;20024;-67
2022/04/17 05:50:05;;;;;;;23.52;15.70;;;2.80;99.90;;;;;;5096467;28;20028;-67
2022/04/17 05:52:31;;;;;;;19.98;14.43;;;2.80;99.90;;;;;;5092241;28;20044;-67
2022/04/17 05:54:57;;;;;;;18.05;13.55;;;2.80;99.90;;;;;;5105251;28;20076;-67
2022/04/17 05:57:23;;;;;;;20.63;13.82;;;2.80;99.90;;;;;;5099681;28;20396;-67
2022/04/17 05:59:49;;;;;;;20.45;14.82;;;2.90;99.90;;;;;;5089991;28;20031;-67
2022/04/17 06:02:15;;;;;;;20.70;14.45;;;2.90;99.90;;;;;;5102086;28;20036;-68
2022/04/17 06:04:41;;;;;;;20.00;13.38;;;3.00;99.90;;;;;;5088836;28;20032;-68
2022/04/17 06:07:08;;;;;;;20.73;13.75;;;3.30;99.90;;;;;;5102860;28;20111;-68
2022/04/17 06:09:34;;;;;;;18.90;13.32;;;3.60;99.90;;;;;;5095887;28;20030;-67
2022/04/17 06:12:00;;;;;;;18.55;13.85;;;3.70;99.90;;;;;;5095030;28;21167;-68
2022/04/17 06:14:25;;;;;;;20.92;14.18;;;3.70;99.90;;;;;;5092470;28;20045;-67
2022/04/17 06:16:51;;;;;;;19.20;13.65;;;3.80;99.90;;;;;;5090673;28;20034;-67
2022/04/17 06:19:17;;;;;;;19.52;13.52;;;3.80;99.90;;;;;;5089171;28;20035;-68
2022/04/17 06:22:00;;;;;;;21.74;14.51;;;3.80;99.90;;;;;;5010048;28;10000550;-67
2022/04/17 06:24:26;;;;;;;25.35;16.73;;;3.80;99.90;;;;;;5089937;28;20335;-67
2022/04/17 06:26:51;;;;;;;22.52;16.38;;;3.80;99.90;;;;;;5087819;28;20020;-67
2022/04/17 06:29:17;;;;;;;22.83;15.43;;;3.80;99.90;;;;;;5087127;28;20175;-67
2022/04/17 06:31:45;;;;;;;21.92;16.13;;;3.90;99.90;;;;;;5092573;28;20535;-68
2022/04/17 06:34:12;;;;;;;20.67;15.80;;;4.00;99.90;;;;;;5092035;28;20452;-67
2022/04/17 06:36:38;;;;;;;24.90;16.17;;;4.20;99.90;;;;;;5095550;28;20035;-68
2022/04/17 06:39:04;;;;;;;22.83;14.98;;;4.30;99.90;;;;;;5088382;28;20028;-68
2022/04/17 06:41:30;;;;;;;21.20;14.90;;;4.40;99.90;;;;;;5092376;28;20028;-68
2022/04/17 06:43:55;;;;;;;18.50;14.18;;;4.60;99.90;;;;;;5091256;28;20123;-68
2022/04/17 06:46:21;;;;;;;21.88;14.68;;;4.70;99.90;;;;;;5087146;28;20512;-67
2022/04/17 06:48:46;;;;;;;22.10;14.75;;;4.80;99.90;;;;;;5100685;28;20020;-68
2022/04/17 06:51:12;;;;;;;21.02;14.70;;;4.90;99.90;;;;;;5086169;28;20119;-68
2022/04/17 06:53:38;;;;;;;20.83;14.43;;;5.10;99.90;;;;;;5090602;28;20028;-68
2022/04/17 06:56:03;;;;;;;21.80;15.13;;;5.30;99.90;;;;;;5089965;28;20024;-68
2022/04/17 06:58:29;;;;;;;22.45;15.18;;;5.50;99.90;;;;;;5084885;28;20036;-67
2022/04/17 07:00:55;;;;;;;20.63;14.77;;;5.70;99.90;;;;;;5085465;28;20226;-67
2022/04/17 07:03:20;;;;;;;22.15;15.07;;;6.00;99.90;;;;;;5095411;28;20028;-67
2022/04/17 07:05:46;;;;;;;21.98;14.40;;;6.20;99.90;;;;;;5084447;28;20511;-67
2022/04/17 07:08:12;;;;;;;19.65;14.52;;;6.70;99.90;;;;;;5086877;28;21115;-67
2022/04/17 07:10:39;;;;;;;20.77;15.45;;;6.80;99.90;;;;;;5079825;28;20034;-68
2022/04/17 07:13:15;;;;;;;18.52;14.35;;;7.00;99.90;;;;;;5087488;28;20078;-68
2022/04/17 07:15:41;;;;;;;21.55;14.65;;;7.30;99.90;;;;;;5095523;28;20085;-67
2022/04/17 07:18:07;;;;;;;17.35;13.02;;;;;;;;;;5088050;28;20472;-68
2022/04/17 07:20:34;;;;;;;17.75;13.68;;;7.80;99.90;;;;;;5090243;28;20027;-69
2022/04/17 07:23:02;;;;;;;18.88;13.52;;;8.10;99.90;;;;;;5084577;28;20081;-68
2022/04/17 07:25:28;;;;;;;21.83;14.05;;;8.20;99.90;;;;;;5077323;28;20024;-68
2022/04/17 07:27:55;;;;;;;20.48;14.35;;;8.30;99.90;;;;;;5080593;28;20373;-69
2022/04/17 07:30:29;;;;;;;17.23;13.00;;;8.50;99.90;;;;;;5090102;28;20716;-69
2022/04/17 07:32:57;;;;;;;20.77;13.73;;;8.60;99.90;;;;;;5084509;28;20039;-69
2022/04/17 07:35:24;;;;;;;21.13;13.40;;;8.90;99.90;;;;;;5088096;28;20487;-67
2022/04/17 07:37:52;;;;;;;18.38;13.13;;;9.10;99.90;;;;;;5088058;28;20089;-67
2022/04/17 07:40:20;;;;;;;18.70;12.85;;;;;;;;;;5089627;28;20055;-67
2022/04/17 07:42:47;;;;;;;18.80;12.45;;;;;;;;;;5090282;28;20112;-68
2022/04/17 07:45:13;;;;;;;16.80;11.27;;;;;;;;;;5085604;28;20115;-67
2022/04/17 07:47:43;;;;;;;19.13;12.43;;;;;;;;;;5092827;28;20028;-69
2022/04/17 07:50:09;;;;;;;15.93;11.13;;;;;;;;;;5091636;28;20024;-70
2022/04/17 07:52:35;;;;;;;16.75;10.85;;;;;;;;;;5090801;28;20026;-69
2022/04/17 07:55:02;;;;;;;15.45;11.00;;;;;;;;;;5097062;28;20454;-70
2022/04/17 07:57:28;;;;;;;14.32;10.65;;;;;;;;;;5091062;28;20023;-69
2022/04/17 07:59:55;;;;;;;16.08;10.63;;;;;;;;;;5087664;28;20063;-69
2022/04/17 08:02:28;;;;;;;17.45;9.75;;;;;;;;;;5086775;28;20123;-70
2022/04/17 08:04:55;;;;;;;14.77;10.38;;;;;;;;;;5099474;28;20106;-69
2022/04/17 08:07:22;;;;;;;13.13;10.25;;;;;;;;;;5104184;28;20468;-69
2022/04/17 08:09:47;;;;;;;15.57;9.98;;;;;;;;;;5094574;28;20089;-69
2022/04/17 08:12:14;;;;;;;11.18;9.27;;;;;;;;;;5087788;28;20382;-69
2022/04/17 08:14:40;;;;;;;11.63;9.27;;;;;;;;;;5101005;28;20031;-69
2022/04/17 08:17:06;;;;;;;12.43;9.25;;;;;;;;;;5088960;28;20073;-70
2022/04/17 08:19:32;;;;;;;10.90;9.00;;;;;;;;;;5107631;28;20391;-70
2022/04/17 08:22:01;;;;;;;13.75;8.65;;;;;;;;;;5091828;28;20059;-70
2022/04/17 08:24:29;;;;;;;12.63;9.05;;;;;;;;;;5086052;28;20024;-70
2022/04/17 08:26:55;;;;;;;10.60;8.35;;;;;;;;;;5088396;28;20388;-69
2022/04/17 08:29:21;;;;;;;12.60;8.70;;;;;;;;;;5086730;28;20040;-70
2022/04/17 08:31:47;;;;;;;13.00;8.85;;;;;;;;;;5088994;28;20039;-70
2022/04/17 08:34:13;;;;;;;11.20;8.82;;;;;;;;;;5085085;28;20079;-70
2022/04/17 08:36:39;;;;;;;11.98;8.40;;;;;;;;;;5086467;28;20075;-70
2022/04/17 08:39:06;;;;;;;12.00;8.60;;;;;;;;;;5100758;28;20079;-69
2022/04/17 08:41:33;;;;;;;12.05;7.32;;;;;;;;;;5087407;28;20536;-70
2022/04/17 08:43:59;;;;;;;9.70;6.93;;;;;;;;;;5085143;28;20135;-70
2022/04/17 08:46:26;;;;;;;11.70;7.25;;;;;;;;;;5087380;28;20508;-69
2022/04/17 08:48:52;;;;;;;11.25;7.68;;;;;;;;;;5087953;28;20051;-70
2022/04/17 08:51:22;;;;;;;8.82;7.22;;;;;;;;;;5093064;28;20063;-70
2022/04/17 08:53:50;;;;;;;10.35;7.22;;;;;;;;;;5103275;28;20167;-70
2022/04/17 08:56:16;;;;;;;9.98;7.55;;;;;;;;;;5088511;28;20656;-70
2022/04/17 08:58:42;;;;;;;11.02;6.93;;;;;;;;;;5086547;28;20039;-70
2022/04/17 09:01:12;;;;;;;10.38;7.00;;;;;;;;;;5093448;28;20385;-70
2022/04/17 09:03:38;;;;;;;7.80;6.57;;;;;;;;;;5088605;28;20027;-70
2022/04/17 09:06:04;;;;;;;12.38;7.18;;;;;;;;;;5087393;28;20028;-70
2022/04/17 09:08:30;;;;;;;12.75;7.47;;;;;;;;;;5092525;28;20051;-70
2022/04/17 09:10:58;;;;;;;10.98;7.10;;;;;;;;;;5091974;28;20101;-70
2022/04/17 09:13:34;;;;;;;9.95;7.05;;;;;;;;;;5086861;28;20086;-70
2022/04/17 09:16:04;;;;;;;8.23;6.05;;;;;;;;;;5089327;28;20596;-70
2022/04/17 09:18:31;;;;;;;8.95;6.53;;;;;;;;;;5093090;28;20479;-70
2022/04/17 09:20:58;;;;;;;10.10;5.88;;;;;;;;;;5086287;28;20051;-70
2022/04/17 09:23:37;;;;;;;11.50;6.00;;;;;;;;;;5098980;28;20023;-70
2022/04/17 09:26:04;;;;;;;9.65;6.15;;;;;;;;;;5089271;28;20024;-70
2022/04/17 09:28:31;;;;;;;9.32;6.13;;;;;;;;;;5087087;28;20103;-70
2022/04/17 09:30:59;;;;;;;8.15;5.47;;;;;;;;;;5086614;28;20107;-67
2022/04/17 09:33:34;;;;;;;7.25;5.45;;;;;;;;;;5079590;28;20502;-66
2022/04/17 09:36:00;;;;;;;7.70;5.28;;;;;;;;;;5089136;28;20028;-66
2022/04/17 09:38:30;;;;;;;7.40;5.47;;;;;;;;;;5093402;28;20565;-66
2022/04/17 09:41:17;;;;;;;9.07;5.60;;;;;;;;;;5087600;28;20141;-66
2022/04/17 09:43:47;;;;;;;7.05;5.35;;;;;;;;;;5084997;28;20031;-66
2022/04/17 09:46:14;;;;;;;7.65;5.28;;;;;;;;;;5090611;28;20326;-66
2022/04/17 09:48:41;;;;;;;9.18;5.68;;;;;;;;;;5098531;28;20020;-66
2022/04/17 09:51:22;;;;;;;6.93;4.82;;;;;;;;;;5096961;28;20028;-66
2022/04/17 09:54:00;;;;;;;7.05;5.13;;;;;;;;;;5085343;28;20032;-66
2022/04/17 09:56:31;;;;;;;6.32;5.15;;;;;;;;;;5086079;28;20065;-66
2022/04/17 09:58:57;;;;;;;9.20;5.57;;;;;;;;;;5089709;28;20024;-66
2022/04/17 10:01:23;;;;;;;9.25;5.53;;;13.70;94.40;;;;;;5098883;28;20046;-66
2022/04/17 10:03:50;;;;;;;8.23;5.47;;;13.70;94.90;;;;;;5085858;28;20050;-66
2022/04/17 10:06:16;;;;;;;7.25;5.22;;;;;;;;;;5084423;28;20016;-66
2022/04/17 10:08:46;;;;;;;8.90;5.05;;;;;;;;;;5088189;28;20027;-66
2022/04/17 10:11:14;;;;;;;8.27;5.68;;;13.70;99.90;;;;;;5083682;28;20039;-65
2022/04/17 10:13:40;;;;;;;11.85;5.82;;;13.80;71.30;;;;;;5095228;28;20020;-67
2022/04/17 10:16:08;;;;;;;7.53;5.32;;;13.80;73.00;;;;;;5086315;28;20145;-66
2022/04/17 10:18:39;;;;;;;7.60;5.15;;;13.90;72.60;;;;;;5091197;28;20031;-66
2022/04/17 10:21:06;;;;;;;6.40;5.00;;;14.00;70.20;;;;;;5100368;28;20707;-66
2022/04/17 10:23:35;;;;;;;6.88;5.05;;;14.00;69.00;;;;;;5091127;28;20024;-66
2022/04/17 10:26:03;;;;;;;8.25;5.22;;;14.20;71.00;;;;;;5088998;28;20380;-66
2022/04/17 10:28:45;;;;;;;9.30;5.57;;;14.20;74.20;;;;;;5091360;28;20024;-67
2022/04/17 10:31:19;;;;;;;7.97;5.32;;;14.20;71.70;;;;;;5083816;28;20462;-66
2022/04/17 10:34:06;;;;;;;6.10;4.78;;;14.30;70.00;;;;;;5091393;28;20046;-66
2022/04/17 10:37:02;;;;;;;5.18;4.28;;;14.30;66.90;;;;;;5093373;28;20384;-66
2022/04/17 10:39:33;;;;;;;6.18;4.43;;;14.50;67.40;;;;;;5097126;28;20491;-66
2022/04/17 10:41:59;;;;;;;6.05;4.60;;;14.60;67.90;;;;;;5094710;28;20036;-66
2022/04/17 10:44:29;;;;;;;6.13;4.20;;;14.70;68.70;;;;;;5091040;28;20386;-66
2022/04/17 10:46:56;;;;;;;6.85;4.50;;;14.40;65.50;;;;;;5094869;28;20023;-66
2022/04/17 10:49:29;;;;;;;6.97;4.47;;;14.30;66.30;;;;;;5088796;28;20059;-66
2022/04/17 10:51:57;;;;;;;6.97;4.38;;;14.30;66.30;;;;;;5096702;28;20036;-66
2022/04/17 10:54:23;;;;;;;5.93;3.60;;;14.30;65.10;;;;;;5097103;28;20089;-66
2022/04/17 10:56:55;;;;;;;4.88;3.50;;;14.50;62.10;;;;;;5096514;28;20036;-66
2022/04/17 10:59:22;;;;;;;5.18;3.63;;;14.50;60.90;;;;;;5090367;28;20024;-66
2022/04/17 11:01:53;;;;;;;5.68;4.13;;;14.50;61.30;;;;;;5092641;28;20527;-67
2022/04/17 11:04:27;;;;;;;4.35;3.88;;;14.50;65.20;;;;;;5091693;28;20035;-66
2022/04/17 11:07:05;;;;;;;5.43;3.63;;;14.40;64.00;;;;;;5099772;28;20016;-67
2022/04/17 11:09:41;;;;;;;6.03;4.05;;;14.30;63.00;;;;;;5093859;28;20024;-66
2022/04/17 11:12:15;;;;;;;5.35;3.63;;;14.30;59.70;;;;;;5091086;28;20027;-66
2022/04/17 11:14:53;;;;;;;6.30;3.67;;;14.30;60.00;;;;;;5088096;28;20035;-66
2022/04/17 11:17:24;;;;;;;5.35;4.07;;;14.50;59.90;;;;;;5092008;28;20024;-66
2022/04/17 11:19:54;;;;;;;6.93;3.60;;;14.80;61.00;;;;;;5087385;28;21410;-66
2022/04/17 11:22:26;;;;;;;5.43;3.50;;;15.00;59.80;;;;;;5088840;28;20056;-66
2022/04/17 11:24:54;;;;;;;4.78;3.25;;;15.30;62.90;;;;;;5086048;28;20551;-66
2022/04/17 11:27:41;;;;;;;4.95;3.00;;;15.20;62.40;;;;;;5090259;28;20051;-66
2022/04/17 11:30:28;;;;;;;5.07;3.40;;;15.20;55.40;;;;;;5097025;28;20542;-66
2022/04/17 11:32:56;;;;;;;4.45;3.30;;;15.30;56.30;;;;;;5090632;28;20071;-66
2022/04/17 11:35:26;;;;;;;4.32;3.40;;;15.20;55.00;;;;;;5101215;28;20431;-66
2022/04/17 11:37:53;;;;;;;4.13;3.20;;;15.10;51.10;;;;;;5089696;28;20543;-65
2022/04/17 11:40:20;;;;;;;4.82;3.30;;;15.10;55.60;;;;;;5089235;28;20050;-66
2022/04/17 11:42:48;;;;;;;5.93;3.80;;;15.10;54.10;;;;;;5091164;28;20035;-65
2022/04/17 11:45:27;;;;;;;5.65;3.60;;;15.00;56.20;;;;;;5091430;28;20031;-66
2022/04/17 11:47:54;;;;;;;8.15;3.58;;;14.90;56.20;;;;;;5103840;28;20104;-65
2022/04/17 11:50:26;;;;;;;6.22;3.80;;;14.60;55.10;;;;;;5096620;28;20280;-65
2022/04/17 11:52:54;;;;;;;5.68;3.63;;;14.50;55.80;;;;;;5109532;28;20522;-65
2022/04/17 11:55:40;;;;;;;4.63;3.25;;;14.40;53.20;;;;;;5088554;28;20640;-66
2022/04/17 11:58:28;;;;;;;5.22;3.28;;;14.60;53.10;;;;;;5090756;28;20035;-66
2022/04/17 12:00:57;;;;;;;4.90;3.45;;;14.80;51.70;;;;;;5094829;28;20449;-66
2022/04/17 12:03:55;;;;;;;4.75;3.58;;;14.90;54.00;;;;;;5088405;28;20138;-66
2022/04/17 12:06:28;;;;;;;6.53;3.85;;;14.90;54.70;;;;;;5091720;28;20038;-66
2022/04/17 12:08:54;;;;;;;5.97;4.25;;;14.80;51.90;;;;;;5089935;28;20073;-66
2022/04/17 12:11:20;;;;;;;5.88;4.10;;;14.90;52.20;;;;;;5089230;28;20036;-66
2022/04/17 12:13:53;;;;;;;5.30;3.92;;;14.90;50.40;;;;;;5088405;28;20062;-66
2022/04/17 12:16:19;;;;;;;5.40;3.67;;;15.10;51.20;;;;;;5090569;28;20511;-65
2022/04/17 12:18:53;;;;;;;5.80;3.55;;;15.30;52.20;;;;;;5097811;28;20035;-66
2022/04/17 12:21:28;;;;;;;8.52;3.90;;;15.50;49.60;;;;;;5099832;28;20550;-66
2022/04/17 12:23:56;;;;;;;5.25;3.45;;;15.80;50.10;;;;;;5088083;28;20475;-66
2022/04/17 12:26:22;;;;;;;5.85;3.60;;;15.70;51.00;;;;;;5086699;28;20028;-66
2022/04/17 12:28:50;;;;;;;6.18;3.65;;;15.80;49.30;;;;;;5097353;28;20044;-66
2022/04/17 12:31:16;;;;;;;6.97;3.97;;;15.70;53.00;;;;;;5090039;28;20041;-66
2022/04/17 12:33:41;;;;;;;5.15;4.20;;;15.50;53.20;;;;;;5094488;28;20294;-66
2022/04/17 12:36:12;;;;;;;5.75;3.95;;;15.20;53.70;;;;;;5091358;28;20103;-66
2022/04/17 12:38:40;;;;;;;5.43;3.65;;;15.10;54.20;;;;;;5087205;28;20028;-66
2022/04/17 12:41:19;;;;;;;7.25;3.70;;;14.90;52.80;;;;;;5091147;28;20060;-66
2022/04/17 12:43:48;;;;;;;6.32;3.53;;;15.00;52.70;;;;;;5085496;28;20368;-66
2022/04/17 12:46:25;;;;;;;4.18;3.10;;;15.10;51.60;;;;;;5093180;28;20073;-66
2022/04/17 12:49:01;;;;;;;5.78;3.40;;;15.40;53.70;;;;;;5093725;28;20024;-66
2022/04/17 12:51:27;;;;;;;4.13;2.75;;;15.40;51.40;;;;;;5094717;28;20028;-66
2022/04/17 12:53:52;;;;;;;4.10;3.10;;;15.40;50.70;;;;;;5091344;28;20019;-66
2022/04/17 12:56:18;;;;;;;5.13;2.30;;;15.60;51.20;;;;;;5089356;28;20537;-66
2022/04/17 12:58:53;;;;;;;5.93;2.40;;;15.50;49.10;;;;;;5087743;28;20056;-65
2022/04/17 13:01:21;;;;;;;2.80;1.90;;;15.40;49.00;;;;;;5090720;28;20334;-66
2022/04/17 13:03:47;;;;;;;3.90;2.20;;;15.40;47.80;;;;;;5086639;28;20412;-66
2022/04/17 13:06:19;;;;;;;2.70;2.20;;;15.40;48.00;;;;;;5098056;28;20024;-65
2022/04/17 13:09:06;;;;;;;3.65;2.05;;;15.30;47.50;;;;;;5093535;28;20111;-66
2022/04/17 13:11:36;;;;;;;3.65;2.08;;;15.40;46.40;;;;;;5086574;28;20040;-66
2022/04/17 13:14:03;;;;;;;3.90;2.00;;;15.60;45.80;;;;;;5086071;28;20173;-66